Time;durP1;ratioP1;P1;durP2;ratioP2;P2;SDS_P1;SDS_P2;PMS_P1;PMS_P2;Temp;Humidity;BMP_temperature;BMP_pressure;BME280_temperature;BME280_humidity;BME280_pressure;Samples;Min_cycle;Max_cycle;Signal;HPM_P1;HPM_P2
2023/08/29 00:04:09;;;;;;;0.40;0.40;;;;;;;21.15;75.45;100967.31;21100263;28;20063;-61
2023/08/29 00:14:10;;;;;;;0.40;0.40;;;;;;;21.09;75.23;100970.66;21110391;28;20052;-61
2023/08/29 00:24:12;;;;;;;1.80;0.60;;;;;;;21.04;75.02;100943.19;21116435;28;20055;-61
2023/08/29 00:34:14;;;;;;;0.50;0.40;;;;;;;21.00;74.84;100943.50;21111445;28;20086;-61
2023/08/29 00:44:16;;;;;;;0.40;0.40;;;;;;;20.98;74.84;100928.41;21106354;28;20044;-61
2023/08/29 00:54:19;;;;;;;0.50;0.30;;;;;;;20.95;74.70;100940.44;21108534;28;20059;-61
2023/08/29 01:04:21;;;;;;;0.85;0.40;;;;;;;20.94;74.26;100930.59;21099727;28;20044;-62
2023/08/29 01:14:55;;;;;;;0.35;0.30;;;;;;;20.92;74.11;100916.38;21108335;28;20055;-61
2023/08/29 01:25:36;;;;;;;0.50;0.45;;;;;;;20.91;73.88;100897.59;21107521;28;20131;-61
2023/08/29 01:35:47;;;;;;;0.85;0.75;;;;;;;20.88;73.61;100914.13;21113910;28;20077;-61
2023/08/29 01:45:49;;;;;;;0.35;0.35;;;;;;;20.80;73.43;100917.63;21102218;28;20533;-61
2023/08/29 01:55:52;;;;;;;1.10;0.45;;;;;;;20.85;73.50;100926.97;21120988;28;20491;-61
2023/08/29 02:05:53;;;;;;;0.40;0.40;;;;;;;20.86;74.15;100935.94;21106667;28;20415;-61
2023/08/29 02:15:55;;;;;;;0.57;0.40;;;;;;;20.88;74.52;100942.06;21119474;28;20066;-61
2023/08/29 02:26:04;;;;;;;0.50;0.50;;;;;;;20.88;73.81;100950.19;21115915;28;20043;-61
2023/08/29 02:36:06;;;;;;;0.63;0.43;;;;;;;20.88;73.90;100942.06;21124472;28;20054;-61
2023/08/29 02:46:08;;;;;;;0.45;0.40;;;;;;;20.88;73.66;100944.75;21109746;28;20046;-61
2023/08/29 02:56:10;;;;;;;0.50;0.30;;;;;;;20.86;73.30;100961.13;21078554;28;20075;-61
2023/08/29 03:06:12;;;;;;;0.20;0.20;;;;;;;20.85;73.18;100967.56;21079193;28;20085;-61
2023/08/29 03:16:14;;;;;;;0.40;0.20;;;;;;;20.82;72.95;100965.16;21076572;28;20048;-61
2023/08/29 03:26:21;;;;;;;0.30;0.30;;;;;;;20.80;72.71;100969.88;21077271;28;20117;-61
2023/08/29 03:36:22;;;;;;;1.02;0.40;;;;;;;20.79;72.30;100943.84;21077635;28;20500;-61
2023/08/29 03:46:24;;;;;;;1.30;0.38;;;;;;;20.77;71.86;100944.94;21074157;28;20109;-61
2023/08/29 03:56:26;;;;;;;0.47;0.32;;;;;;;20.75;71.66;100936.13;21076758;28;20095;-61
2023/08/29 04:06:28;;;;;;;0.40;0.40;;;;;;;20.72;71.81;100938.13;21072678;28;20052;-61
2023/08/29 04:16:30;;;;;;;0.28;0.28;;;;;;;20.70;71.33;100923.91;21071980;28;20056;-61
2023/08/29 04:26:33;;;;;;;0.85;0.20;;;;;;;20.69;71.01;100913.28;21089621;28;20504;-61
2023/08/29 04:36:34;;;;;;;0.30;0.25;;;;;;;20.67;70.81;100899.88;21071489;28;20060;-61
2023/08/29 04:46:36;;;;;;;0.30;0.30;;;;;;;20.65;70.43;100901.91;21071174;28;20052;-61
2023/08/29 04:56:38;;;;;;;0.63;0.20;;;;;;;20.63;70.21;100890.38;21072607;28;20054;-61
2023/08/29 05:06:39;;;;;;;0.22;0.22;;;;;;;20.61;69.96;100870.75;21071209;28;20500;-61
2023/08/29 05:16:41;;;;;;;0.30;0.30;;;;;;;20.60;69.31;100879.88;21070368;28;20093;-61
2023/08/29 05:26:44;;;;;;;0.20;0.20;;;;;;;20.56;68.88;100894.72;21082367;28;20057;-61
2023/08/29 05:36:48;;;;;;;0.57;0.30;;;;;;;20.51;69.34;100891.63;21077567;28;20044;-61
2023/08/29 05:46:50;;;;;;;2.58;0.30;;;;;;;20.52;69.86;100877.09;21077348;27;20689;-61
2023/08/29 05:56:52;;;;;;;2.63;0.50;;;;;;;20.49;71.31;100869.31;21092222;28;20051;-62
2023/08/29 06:06:54;;;;;;;1.95;0.85;;;;;;;20.45;71.09;100865.22;21091402;28;20577;-61
2023/08/29 06:16:55;;;;;;;3.80;0.50;;;;;;;20.40;71.25;100858.41;21091304;28;20055;-60
2023/08/29 06:26:57;;;;;;;1.10;0.30;;;;;;;20.39;70.68;100877.47;21081374;28;20483;-61
2023/08/29 06:36:59;;;;;;;0.82;0.30;;;;;;;20.33;70.57;100873.56;21080751;28;20281;-60
2023/08/29 06:47:01;;;;;;;1.35;0.20;;;;;;;20.38;70.49;100889.28;21081018;28;20052;-61
2023/08/29 06:57:03;;;;;;;0.22;0.17;;;;;;;20.38;70.85;100892.00;21079888;28;20610;-60
2023/08/29 07:07:05;;;;;;;0.38;0.30;;;;;;;20.40;71.27;100901.66;21078660;28;20056;-61
2023/08/29 07:17:07;;;;;;;0.90;0.30;;;;;;;20.46;72.08;100902.06;21083612;28;20060;-61
2023/08/29 07:27:11;;;;;;;;;;;;;;;20.53;72.76;100884.22;21090105;28;20127;-61
2023/08/29 07:37:13;;;;;;;0.40;0.40;;;;;;;20.62;73.93;100877.88;21114575;28;19924;-60
2023/08/29 07:47:15;;;;;;;0.95;0.40;;;;;;;20.79;74.56;100857.25;21083919;28;20056;-61
2023/08/29 07:57:17;;;;;;;0.30;0.22;;;;;;;20.92;75.46;100862.25;21077176;28;20079;-60
2023/08/29 08:07:18;;;;;;;3.50;0.50;;;;;;;21.01;76.38;100861.31;21094168;28;20503;-61
2023/08/29 08:17:20;;;;;;;0.38;0.38;;;;;;;21.08;76.69;100869.66;21075835;28;20078;-61
2023/08/29 08:27:22;;;;;;;0.43;0.25;;;;;;;21.21;77.05;100866.53;21081936;28;20535;-60
2023/08/29 08:37:24;;;;;;;0.93;0.32;;;;;;;21.64;75.87;100872.03;21083533;28;20040;-60
2023/08/29 08:47:25;;;;;;;0.55;0.35;;;;;;;21.94;74.54;100877.06;21077992;28;20048;-61
2023/08/29 08:57:27;;;;;;;0.38;0.30;;;;;;;21.89;74.26;100874.88;21102801;28;20482;-61
2023/08/29 09:07:30;;;;;;;0.65;0.30;;;;;;;21.80;74.65;100882.09;21104821;28;20047;-61
2023/08/29 09:17:31;;;;;;;0.65;0.30;;;;;;;21.71;75.63;100883.09;21099895;28;20036;-60
2023/08/29 09:27:41;;;;;;;0.80;0.40;;;;;;;21.63;75.49;100886.56;21103941;28;20550;-59
2023/08/29 09:37:50;;;;;;;1.00;0.30;;;;;;;21.56;75.50;100891.78;21089428;28;20069;-60
2023/08/29 09:47:54;;;;;;;1.30;0.40;;;;;;;21.56;75.61;100880.94;21082919;28;20131;-60
2023/08/29 09:57:56;;;;;;;0.63;0.40;;;;;;;21.53;75.77;100873.13;21103334;28;20051;-61
2023/08/29 10:08:01;;;;;;;0.30;0.30;;;;;;;21.57;75.63;100870.97;21111572;28;20498;-60
2023/08/29 10:18:03;;;;;;;0.70;0.35;;;;;;;21.58;75.48;100861.81;21110492;28;20051;-61
2023/08/29 10:28:06;;;;;;;0.68;0.30;;;;;;;21.61;75.53;100864.22;21098674;28;20044;-60
2023/08/29 10:38:12;;;;;;;0.40;0.40;;;;;;;21.61;75.68;100852.50;21089583;28;20055;-61
2023/08/29 10:48:17;;;;;;;0.85;0.40;;;;;;;21.55;77.42;100851.31;21079508;28;20040;-60
2023/08/29 10:58:39;;;;;;;0.95;0.30;;;;;;;21.53;78.70;100848.75;21084484;28;20052;-60
2023/08/29 11:08:41;;;;;;;0.30;0.30;;;;;;;21.43;80.28;100829.94;21096691;28;20127;-60
2023/08/29 11:18:43;;;;;;;2.33;0.52;;;;;;;21.44;81.08;100833.47;21080664;28;20453;-61
2023/08/29 11:28:45;;;;;;;1.55;0.38;;;;;;;21.44;82.25;100831.63;21058608;28;20115;-60
2023/08/29 11:38:47;;;;;;;0.98;0.50;;;;;;;21.47;83.01;100826.91;21059721;28;20052;-60
2023/08/29 11:48:53;;;;;;;0.47;0.40;;;;;;;21.49;82.21;100825.72;21074850;28;20055;-60
2023/08/29 11:58:56;;;;;;;0.63;0.40;;;;;;;21.54;82.47;100812.53;21071652;28;20051;-59
2023/08/29 12:08:59;;;;;;;1.30;0.52;;;;;;;21.62;82.78;100802.72;21047770;28;20052;-60
2023/08/29 12:19:06;;;;;;;0.80;0.60;;;;;;;21.65;82.26;100802.44;21063028;28;20052;-60
2023/08/29 12:29:08;;;;;;;0.50;0.40;;;;;;;21.69;81.39;100801.97;21071010;28;20047;-60
2023/08/29 12:39:10;;;;;;;1.50;0.50;;;;;;;21.72;80.05;100800.78;21082037;28;20060;-60
2023/08/29 12:49:12;;;;;;;1.10;0.40;;;;;;;21.75;79.30;100789.63;21064053;28;20052;-60
2023/08/29 12:59:13;;;;;;;1.08;0.70;;;;;;;21.79;78.17;100795.53;21070767;28;20056;-60
2023/08/29 13:09:16;;;;;;;0.60;0.60;;;;;;;21.79;78.43;100782.84;21053753;28;20077;-60
2023/08/29 13:19:35;;;;;;;1.27;0.45;;;;;;;21.74;78.41;100766.25;21062427;28;20411;-60
2023/08/29 13:29:37;;;;;;;0.93;0.70;;;;;;;21.78;78.12;100775.75;21050144;28;20047;-60
2023/08/29 13:39:43;;;;;;;0.47;0.32;;;;;;;21.79;77.95;100761.19;21057692;28;20074;-59
2023/08/29 13:49:45;;;;;;;0.70;0.55;;;;;;;21.80;77.77;100754.75;21072900;28;20561;-60
2023/08/29 13:59:48;;;;;;;0.55;0.40;;;;;;;21.81;76.15;100748.31;21078234;28;20060;-59
2023/08/29 14:09:49;;;;;;;0.82;0.45;;;;;;;21.81;76.01;100734.78;21089481;28;20048;-60
2023/08/29 14:19:52;;;;;;;0.80;0.80;;;;;;;21.78;76.54;100724.25;21074257;28;20177;-59
2023/08/29 14:29:54;;;;;;;0.93;0.40;;;;;;;21.80;76.84;100722.22;21083445;28;20044;-59
2023/08/29 14:39:56;;;;;;;0.98;0.50;;;;;;;21.80;76.75;100716.81;21072474;28;20074;-59
2023/08/29 14:49:57;;;;;;;0.70;0.50;;;;;;;21.79;75.56;100723.25;21079394;28;20055;-59
2023/08/29 14:59:59;;;;;;;1.10;0.38;;;;;;;21.78;74.60;100717.97;21067025;28;20280;-59
2023/08/29 15:10:03;;;;;;;1.10;0.73;;;;;;;21.77;74.63;100714.44;21081564;28;20040;-63
2023/08/29 15:20:09;;;;;;;1.90;0.63;;;;;;;21.77;75.63;100711.72;21083566;28;20080;-64
2023/08/29 15:30:12;;;;;;;1.25;0.63;;;;;;;21.79;75.28;100717.81;21087729;28;20054;-64
2023/08/29 15:40:14;;;;;;;1.70;0.60;;;;;;;21.78;75.15;100716.13;21078381;28;20048;-66
2023/08/29 15:50:16;;;;;;;2.50;0.68;;;;;;;21.80;76.13;100707.81;21076284;28;20119;-66
2023/08/29 16:00:19;;;;;;;1.10;0.68;;;;;;;21.86;81.21;100710.72;21083429;28;20054;-68
2023/08/29 16:10:21;;;;;;;0.70;0.70;;;;;;;21.87;79.44;100707.00;21051071;28;20043;-65
2023/08/29 16:20:23;;;;;;;1.67;1.02;;;;;;;21.95;80.52;100716.16;21064544;28;20066;-65
2023/08/29 16:30:26;;;;;;;5.90;1.95;;;;;;;22.02;82.19;100717.16;21061874;28;20054;-67
2023/08/29 16:40:29;;;;;;;4.53;1.60;;;;;;;22.09;80.54;100715.47;21057956;28;20047;-68
2023/08/29 16:50:31;;;;;;;3.00;1.13;;;;;;;22.07;79.17;100714.78;21061595;28;20526;-66
2023/08/29 17:00:33;;;;;;;4.18;0.98;;;;;;;22.04;79.09;100719.72;21099021;28;20521;-66
2023/08/29 17:10:35;;;;;;;4.95;0.80;;;;;;;21.97;80.07;100706.84;21110062;28;20093;-64
2023/08/29 17:20:37;;;;;;;1.67;1.00;;;;;;;21.93;79.51;100712.75;21066291;28;20097;-67
2023/08/29 17:30:39;;;;;;;2.58;0.60;;;;;;;21.86;79.98;100693.59;21093840;28;20114;-67
2023/08/29 17:40:40;;;;;;;1.33;0.50;;;;;;;21.83;80.07;100702.94;21085453;28;20109;-67
2023/08/29 17:50:42;;;;;;;0.77;0.50;;;;;;;21.77;80.20;100687.34;21070493;28;20052;-67
2023/08/29 18:00:44;;;;;;;1.40;0.82;;;;;;;21.75;80.02;100688.50;21083510;28;20484;-67
2023/08/29 18:10:46;;;;;;;0.75;0.70;;;;;;;21.72;79.82;100674.28;21067843;28;20044;-66
2023/08/29 18:20:54;;;;;;;2.25;0.68;;;;;;;21.72;79.71;100684.28;21065324;28;20437;-67
2023/08/29 18:30:56;;;;;;;0.70;0.60;;;;;;;21.75;80.16;100674.97;21080133;28;20059;-67
2023/08/29 18:40:58;;;;;;;1.05;0.73;;;;;;;21.75;79.85;100662.28;21080483;28;20056;-67
2023/08/29 18:51:00;;;;;;;1.17;0.85;;;;;;;21.69;79.77;100662.94;21053429;28;20065;-66
2023/08/29 19:01:01;;;;;;;0.77;0.60;;;;;;;21.74;80.18;100663.28;21084402;28;20059;-67
2023/08/29 19:11:04;;;;;;;1.85;0.77;;;;;;;21.67;80.14;100667.69;21163765;28;20052;-67
2023/08/29 19:21:05;;;;;;;1.55;0.80;;;;;;;21.70;79.84;100657.34;21163414;28;20183;-67
2023/08/29 19:31:07;;;;;;;1.15;0.90;;;;;;;21.68;79.78;100655.84;21162819;28;20048;-67
2023/08/29 19:41:11;;;;;;;1.08;0.70;;;;;;;21.65;79.93;100645.31;21160596;28;20051;-67
2023/08/29 19:51:14;;;;;;;3.43;1.60;;;;;;;21.61;83.88;100654.75;21146527;28;20059;-67
2023/08/29 20:01:16;;;;;;;3.75;1.30;;;;;;;21.56;84.40;100647.97;21076222;28;20052;-67
2023/08/29 20:11:18;;;;;;;2.40;1.55;;;;;;;21.53;83.78;100637.50;21073746;28;20048;-66
2023/08/29 20:21:19;;;;;;;2.40;1.50;;;;;;;21.51;83.27;100627.84;21074854;28;20081;-67
2023/08/29 20:31:21;;;;;;;2.28;1.60;;;;;;;21.46;83.33;100620.22;21073956;28;20073;-67
2023/08/29 20:41:24;;;;;;;2.50;1.58;;;;;;;21.45;83.09;100626.66;21072424;28;20056;-66
2023/08/29 20:51:27;;;;;;;2.25;1.30;;;;;;;21.42;83.00;100625.09;21072162;28;20620;-66
2023/08/29 21:01:29;;;;;;;2.22;1.60;;;;;;;21.40;82.88;100623.59;21071699;28;20052;-66
2023/08/29 21:11:30;;;;;;;2.80;1.67;;;;;;;21.38;82.80;100617.50;21072290;28;20101;-67
2023/08/29 21:21:32;;;;;;;1.95;1.33;;;;;;;21.35;82.75;100615.13;21071286;28;20056;-66
2023/08/29 21:31:34;;;;;;;2.38;1.60;;;;;;;21.35;82.61;100609.72;21070690;28;20051;-67
2023/08/29 21:41:39;;;;;;;2.65;1.60;;;;;;;21.32;82.26;100601.91;21069781;28;20091;-67
2023/08/29 21:51:41;;;;;;;1.77;1.30;;;;;;;21.30;81.97;100593.94;21070680;28;20056;-67
2023/08/29 22:01:43;;;;;;;1.85;1.67;;;;;;;21.29;81.86;100592.25;21069654;28;20067;-67
2023/08/29 22:11:45;;;;;;;1.80;1.60;;;;;;;21.31;81.49;100590.22;21085420;28;20404;-66
2023/08/29 22:21:46;;;;;;;1.30;1.20;;;;;;;21.36;81.68;100581.63;21083604;28;20113;-66
2023/08/29 22:31:48;;;;;;;1.60;1.30;;;;;;;21.38;81.53;100579.59;21082383;28;20055;-66
2023/08/29 22:41:50;;;;;;;1.65;1.20;;;;;;;21.33;81.60;100553.00;21083153;28;20539;-66
2023/08/29 22:51:52;;;;;;;2.08;1.42;;;;;;;21.39;81.35;100559.63;21078336;28;20067;-66
2023/08/29 23:01:56;;;;;;;1.60;1.50;;;;;;;21.37;80.82;100543.53;21049827;28;20450;-66
2023/08/29 23:11:58;;;;;;;2.83;1.57;;;;;;;21.36;80.76;100539.13;21082286;28;20113;-66
2023/08/29 23:21:59;;;;;;;2.08;1.38;;;;;;;21.36;80.05;100543.72;21075976;28;20060;-66
2023/08/29 23:32:04;;;;;;;1.77;1.52;;;;;;;21.34;79.86;100521.38;21075880;28;20056;-66
2023/08/29 23:42:06;;;;;;;1.77;1.60;;;;;;;21.32;80.00;100509.88;21077960;28;20044;-66
2023/08/29 23:52:08;;;;;;;2.60;1.70;;;;;;;21.29;79.83;100509.19;21075729;28;20289;-66
